createdAt,value
2019-03-27T00:01:10.161Z,2.12
2019-03-27T00:03:42.056Z,2.33
2019-03-27T00:06:14.669Z,3.00
2019-03-27T00:08:46.488Z,3.17
2019-03-27T00:11:18.396Z,2.20
2019-03-27T00:13:50.192Z,2.60
2019-03-27T00:16:22.403Z,1.90
2019-03-27T00:18:54.314Z,2.73
2019-03-27T00:21:26.365Z,2.60
2019-03-27T00:23:58.256Z,1.90
2019-03-27T00:26:30.045Z,2.40
2019-03-27T00:29:01.919Z,2.27
2019-03-27T00:31:34.015Z,3.17
2019-03-27T00:34:06.356Z,2.43
2019-03-27T00:36:38.228Z,3.13
2019-03-27T00:39:10.440Z,2.60
2019-03-27T00:41:42.297Z,3.33
2019-03-27T00:44:14.181Z,2.00
2019-03-27T00:46:45.979Z,2.03
2019-03-27T00:49:17.783Z,2.00
2019-03-27T00:51:50.009Z,1.60
2019-03-27T00:54:21.805Z,2.08
2019-03-27T00:56:54.170Z,2.00
2019-03-27T00:59:26.578Z,2.03
2019-03-27T01:01:58.369Z,2.12
2019-03-27T01:04:30.546Z,1.90
2019-03-27T01:07:02.451Z,2.30
2019-03-27T01:09:34.277Z,1.93
2019-03-27T01:12:06.367Z,2.03
2019-03-27T01:14:38.206Z,2.30
2019-03-27T01:17:10.029Z,1.53
2019-03-27T01:19:42.806Z,2.08
2019-03-27T01:22:14.589Z,2.27
2019-03-27T01:24:46.800Z,1.90
2019-03-27T01:27:18.934Z,1.60
2019-03-27T01:29:50.764Z,2.30
2019-03-27T01:32:22.553Z,2.17
2019-03-27T01:34:55.955Z,2.08
2019-03-27T01:37:27.754Z,2.30
2019-03-27T01:39:59.563Z,2.33
2019-03-27T01:42:31.372Z,2.50
2019-03-27T01:45:03.675Z,1.60
2019-03-27T01:47:35.483Z,2.67
2019-03-27T01:50:07.759Z,2.62
2019-03-27T01:52:39.633Z,1.77
2019-03-27T01:55:11.581Z,1.80
2019-03-27T01:57:44.065Z,1.70
2019-03-27T02:00:16.107Z,2.45
2019-03-27T02:02:47.898Z,1.40
2019-03-27T02:05:19.724Z,2.00
2019-03-27T02:07:51.595Z,2.67
2019-03-27T02:10:23.559Z,1.50
2019-03-27T02:12:56.310Z,1.92
2019-03-27T02:15:28.107Z,2.33
2019-03-27T02:17:59.972Z,2.25
2019-03-27T02:20:32.022Z,1.73
2019-03-27T02:23:03.831Z,2.20
2019-03-27T02:25:35.630Z,1.27
2019-03-27T02:28:07.829Z,1.87
2019-03-27T02:30:41.393Z,1.53
2019-03-27T02:33:13.272Z,2.07
2019-03-27T02:35:45.107Z,2.57
2019-03-27T02:38:17.087Z,1.60
2019-03-27T02:40:49.139Z,2.10
2019-03-27T02:43:21.362Z,2.00
2019-03-27T02:45:53.177Z,1.85
2019-03-27T02:48:26.895Z,1.62
2019-03-27T02:50:58.723Z,2.08
2019-03-27T02:53:30.766Z,1.60
2019-03-27T02:56:03.080Z,1.97
2019-03-27T02:58:35.188Z,1.87
2019-03-27T03:01:08.024Z,2.05
2019-03-27T03:03:39.800Z,2.03
2019-03-27T03:06:12.228Z,1.77
2019-03-27T03:08:44.065Z,2.65
2019-03-27T03:11:16.476Z,2.47
2019-03-27T03:13:48.325Z,2.33
2019-03-27T03:16:20.112Z,3.50
2019-03-27T03:18:52.040Z,3.60
2019-03-27T03:21:24.111Z,2.37
2019-03-27T03:23:56.170Z,2.22
2019-03-27T03:26:27.956Z,1.83
2019-03-27T03:28:59.737Z,1.67
2019-03-27T03:31:31.844Z,1.97
2019-03-27T03:34:04.140Z,2.35
2019-03-27T03:36:36.768Z,2.17
2019-03-27T03:39:09.620Z,2.35
2019-03-27T03:41:41.461Z,1.90
2019-03-27T03:44:13.232Z,2.50
2019-03-27T03:46:58.971Z,2.67
2019-03-27T03:49:19.231Z,1.70
2019-03-27T03:51:51.144Z,1.87
2019-03-27T03:54:23.601Z,1.90
2019-03-27T03:56:57.921Z,1.90
2019-03-27T03:59:31.606Z,2.30
2019-03-27T04:02:05.613Z,2.27
2019-03-27T04:04:39.453Z,3.20
2019-03-27T04:07:11.527Z,2.17
2019-03-27T04:09:43.884Z,3.22
2019-03-27T04:12:16.077Z,2.83
2019-03-27T04:14:47.857Z,2.20
2019-03-27T04:17:19.664Z,2.50
2019-03-27T04:19:51.672Z,2.83
2019-03-27T04:22:23.466Z,3.20
2019-03-27T04:27:26.625Z,2.53
2019-03-27T04:29:58.496Z,2.75
2019-03-27T04:32:30.615Z,3.00
2019-03-27T04:35:02.521Z,3.33
2019-03-27T04:37:34.348Z,3.37
2019-03-27T04:40:06.937Z,2.77
2019-03-27T04:42:39.067Z,3.73
2019-03-27T04:45:11.236Z,4.47
2019-03-27T04:47:43.227Z,4.20
2019-03-27T04:50:15.637Z,3.73
2019-03-27T04:52:47.773Z,3.60
2019-03-27T04:55:19.621Z,4.40
2019-03-27T04:57:51.429Z,3.60
2019-03-27T05:00:23.899Z,4.13
2019-03-27T05:02:56.584Z,4.12
2019-03-27T05:05:28.367Z,3.15
2019-03-27T05:08:00.381Z,4.47
2019-03-27T05:10:32.579Z,4.03
2019-03-27T05:13:04.559Z,2.77
2019-03-27T05:15:36.498Z,4.20
2019-03-27T05:18:08.287Z,3.15
2019-03-27T05:20:40.182Z,3.80
2019-03-27T05:23:12.281Z,3.60
2019-03-27T05:25:44.165Z,3.23
2019-03-27T05:28:15.990Z,4.07
2019-03-27T05:30:48.011Z,3.70
2019-03-27T05:33:19.860Z,2.70
2019-03-27T05:35:51.719Z,3.83
2019-03-27T05:38:23.483Z,3.27
2019-03-27T05:40:56.778Z,3.77
2019-03-27T05:43:28.614Z,3.03
2019-03-27T05:46:00.386Z,3.22
2019-03-27T05:48:32.149Z,3.37
2019-03-27T05:51:04.195Z,3.97
2019-03-27T05:53:36.053Z,3.30
2019-03-27T05:56:07.972Z,3.70
2019-03-27T05:58:39.933Z,3.83
2019-03-27T06:01:11.748Z,3.80
2019-03-27T06:03:44.853Z,3.65
2019-03-27T06:06:16.669Z,4.50
2019-03-27T06:08:48.428Z,4.62
2019-03-27T06:11:20.273Z,4.30
2019-03-27T06:13:52.126Z,3.42
2019-03-27T06:16:24.045Z,3.67
2019-03-27T06:18:56.924Z,4.22
2019-03-27T06:21:28.718Z,5.70
2019-03-27T06:24:00.578Z,3.50
2019-03-27T06:26:32.451Z,3.67
2019-03-27T06:29:04.290Z,3.57
2019-03-27T06:31:36.136Z,4.67
2019-03-27T06:34:07.979Z,2.67
2019-03-27T06:36:39.850Z,3.40
2019-03-27T06:39:11.809Z,2.98
2019-03-27T06:41:44.004Z,4.23
2019-03-27T06:44:15.804Z,3.60
2019-03-27T06:46:48.248Z,3.73
2019-03-27T06:49:20.162Z,3.83
2019-03-27T06:51:51.994Z,4.07
2019-03-27T06:54:23.739Z,4.27
2019-03-27T06:56:56.991Z,3.60
2019-03-27T06:59:28.759Z,3.53
2019-03-27T07:02:00.603Z,4.67
2019-03-27T07:04:32.436Z,4.43
2019-03-27T07:07:04.284Z,3.37
2019-03-27T07:09:36.270Z,3.73
2019-03-27T07:12:20.511Z,3.70
2019-03-27T07:14:42.166Z,3.67
2019-03-27T07:17:13.945Z,4.43
2019-03-27T07:19:45.929Z,3.77
2019-03-27T07:22:17.840Z,4.22
2019-03-27T07:24:49.639Z,3.23
2019-03-27T07:27:21.463Z,3.20
2019-03-27T07:29:53.233Z,4.45
2019-03-27T07:32:25.187Z,3.07
2019-03-27T07:34:57.115Z,4.30
2019-03-27T07:37:29.352Z,3.43
2019-03-27T07:40:02.175Z,3.30
2019-03-27T07:42:34.169Z,4.73
2019-03-27T07:45:07.438Z,4.40
2019-03-27T07:47:39.206Z,3.60
2019-03-27T07:50:11.932Z,3.43
2019-03-27T07:52:44.736Z,3.90
2019-03-27T07:55:19.699Z,3.83
2019-03-27T07:57:50.112Z,3.33
2019-03-27T08:00:24.230Z,4.20
2019-03-27T08:02:56.839Z,4.37
2019-03-27T08:05:28.785Z,3.07
2019-03-27T08:08:01.543Z,3.70
2019-03-27T08:10:33.398Z,3.07
2019-03-27T08:13:05.419Z,3.83
2019-03-27T08:15:40.461Z,4.87
2019-03-27T08:18:10.710Z,3.72
2019-03-27T08:20:42.600Z,3.73
2019-03-27T08:23:14.757Z,4.67
2019-03-27T08:25:46.589Z,4.70
2019-03-27T08:28:18.482Z,4.33
2019-03-27T08:30:50.357Z,3.37
2019-03-27T08:33:22.543Z,3.93
2019-03-27T08:35:54.334Z,4.60
2019-03-27T08:38:27.030Z,4.25
2019-03-27T08:40:58.792Z,3.70
2019-03-27T08:43:30.655Z,3.60
2019-03-27T08:46:03.112Z,4.23
2019-03-27T08:48:34.974Z,4.10
2019-03-27T08:51:07.092Z,4.43
2019-03-27T08:53:38.957Z,3.90
2019-03-27T08:56:10.896Z,3.95
2019-03-27T08:58:43.112Z,4.03
2019-03-27T09:01:15.310Z,5.03
2019-03-27T09:03:47.172Z,4.17
2019-03-27T09:06:32.767Z,4.30
2019-03-27T09:08:52.689Z,4.63
2019-03-27T09:11:24.474Z,4.00
2019-03-27T09:13:57.178Z,3.20
2019-03-27T09:16:29.143Z,3.70
2019-03-27T09:19:01.468Z,3.40
2019-03-27T09:21:33.266Z,4.57
2019-03-27T09:24:06.275Z,3.10
2019-03-27T09:26:38.349Z,2.80
2019-03-27T09:29:10.567Z,3.50
2019-03-27T09:31:45.157Z,3.40
2019-03-27T09:34:17.775Z,1.90
2019-03-27T09:36:49.867Z,2.33
2019-03-27T09:39:21.743Z,2.50
2019-03-27T09:41:53.580Z,2.60
2019-03-27T09:44:25.492Z,2.47
2019-03-27T09:46:57.512Z,2.98
2019-03-27T09:49:29.931Z,3.03
2019-03-27T09:52:01.805Z,3.55
2019-03-27T09:54:33.740Z,3.10
2019-03-27T09:57:05.503Z,3.73
2019-03-27T09:59:37.348Z,2.77
2019-03-27T10:02:09.383Z,2.80
2019-03-27T10:04:41.621Z,3.00
2019-03-27T10:07:13.495Z,3.30
2019-03-27T10:09:45.430Z,2.93
2019-03-27T10:12:17.301Z,2.40
2019-03-27T10:14:50.144Z,2.40
2019-03-27T10:17:22.195Z,2.57
2019-03-27T10:20:03.262Z,2.87
2019-03-27T10:22:27.761Z,2.87
2019-03-27T10:24:59.639Z,2.52
2019-03-27T10:27:31.544Z,2.70
2019-03-27T10:30:03.513Z,2.87
2019-03-27T10:32:35.781Z,2.58
2019-03-27T10:35:08.132Z,3.27
2019-03-27T10:37:40.009Z,3.23
2019-03-27T10:40:12.106Z,3.33
2019-03-27T10:42:43.879Z,2.93
2019-03-27T10:45:16.330Z,3.08
2019-03-27T10:47:48.179Z,2.80
2019-03-27T10:50:20.114Z,2.97
2019-03-27T10:52:52.036Z,3.60
2019-03-27T10:55:24.044Z,3.20
2019-03-27T10:57:55.921Z,3.10
2019-03-27T11:00:27.901Z,3.10
2019-03-27T11:03:00.007Z,2.72
2019-03-27T11:05:32.038Z,2.27
2019-03-27T11:08:04.342Z,2.80
2019-03-27T11:10:36.268Z,2.30
2019-03-27T11:13:08.127Z,2.27
2019-03-27T11:15:40.206Z,2.07
2019-03-27T11:18:12.124Z,2.37
2019-03-27T11:20:44.039Z,2.37
2019-03-27T11:23:15.932Z,2.67
2019-03-27T11:25:47.698Z,2.33
2019-03-27T11:28:19.555Z,2.30
2019-03-27T11:30:51.332Z,2.40
2019-03-27T11:33:23.266Z,1.93
2019-03-27T11:35:55.111Z,2.77
2019-03-27T11:38:27.676Z,2.42
2019-03-27T11:40:59.695Z,2.70
2019-03-27T11:43:31.707Z,2.20
2019-03-27T11:46:03.628Z,2.10
2019-03-27T11:48:35.612Z,2.10
2019-03-27T11:51:07.637Z,2.47
2019-03-27T11:53:39.426Z,2.17
2019-03-27T11:56:11.422Z,2.27
2019-03-27T11:58:43.455Z,2.90
2019-03-27T12:01:15.308Z,2.92
2019-03-27T12:03:47.576Z,2.47
2019-03-27T12:06:19.433Z,2.90
2019-03-27T12:08:51.389Z,2.50
2019-03-27T12:11:23.307Z,2.40
2019-03-27T12:13:55.194Z,2.13
2019-03-27T12:16:27.901Z,2.15
2019-03-27T12:18:59.773Z,2.35
2019-03-27T12:21:31.704Z,1.83
2019-03-27T12:24:03.628Z,2.73
2019-03-27T12:26:35.635Z,2.57
2019-03-27T12:29:08.093Z,2.37
2019-03-27T12:31:40.437Z,2.37
2019-03-27T12:34:12.832Z,2.70
2019-03-27T12:36:44.777Z,2.85
2019-03-27T12:39:16.961Z,2.80
2019-03-27T12:41:49.214Z,2.90
2019-03-27T12:44:21.107Z,2.40
2019-03-27T12:46:52.973Z,2.77
2019-03-27T12:49:25.131Z,2.20
2019-03-27T12:51:57.951Z,2.05
2019-03-27T12:54:30.134Z,2.93
2019-03-27T12:57:02.081Z,1.92
2019-03-27T12:59:34.028Z,2.50
2019-03-27T13:02:06.598Z,2.20
2019-03-27T13:04:38.676Z,2.37
2019-03-27T13:07:10.603Z,2.10
2019-03-27T13:09:42.543Z,2.73
2019-03-27T13:12:14.344Z,2.20
2019-03-27T13:14:46.281Z,2.40
2019-03-27T13:17:18.118Z,2.30
2019-03-27T13:19:50.117Z,2.30
2019-03-27T13:22:22.300Z,2.67
2019-03-27T13:24:54.167Z,2.83
2019-03-27T13:27:26.159Z,1.70
2019-03-27T13:29:58.923Z,2.27
2019-03-27T13:32:30.745Z,2.17
2019-03-27T13:35:03.127Z,2.70
2019-03-27T13:37:35.351Z,1.70
2019-03-27T13:40:08.550Z,1.93
2019-03-27T13:42:40.398Z,1.70
2019-03-27T13:45:14.012Z,2.02
2019-03-27T13:47:45.852Z,1.50
2019-03-27T13:50:18.513Z,2.00
2019-03-27T13:52:50.378Z,1.77
2019-03-27T13:55:22.370Z,1.90
2019-03-27T13:57:54.351Z,2.10
2019-03-27T14:00:26.358Z,1.67
2019-03-27T14:02:58.238Z,1.82
2019-03-27T14:05:30.203Z,1.53
2019-03-27T14:08:02.060Z,2.08
2019-03-27T14:10:34.371Z,1.70
2019-03-27T14:13:06.377Z,1.55
2019-03-27T14:15:38.368Z,1.90
2019-03-27T14:18:10.859Z,2.07
2019-03-27T14:20:42.751Z,1.50
2019-03-27T14:23:14.578Z,1.47
2019-03-27T14:25:46.402Z,1.53
2019-03-27T14:28:18.340Z,1.33
2019-03-27T14:30:59.056Z,1.43
2019-03-27T14:33:30.901Z,1.83
2019-03-27T14:36:02.980Z,1.65
2019-03-27T14:38:35.224Z,1.35
2019-03-27T14:41:07.244Z,2.00
2019-03-27T14:43:39.281Z,1.97
2019-03-27T14:46:11.241Z,1.83
2019-03-27T14:48:43.341Z,1.60
2019-03-27T14:51:15.276Z,1.40
2019-03-27T14:53:47.072Z,1.20
2019-03-27T14:56:18.876Z,1.47
2019-03-27T14:58:50.766Z,1.50
2019-03-27T15:01:23.102Z,1.10
2019-03-27T15:03:55.152Z,1.67
2019-03-27T15:06:28.153Z,1.64
2019-03-27T15:09:00.280Z,1.40
2019-03-27T15:11:32.110Z,2.00
2019-03-27T15:14:04.085Z,1.70
2019-03-27T15:16:36.334Z,1.07
2019-03-27T15:19:08.395Z,1.32
2019-03-27T15:21:40.186Z,1.47
2019-03-27T15:24:12.387Z,0.98
2019-03-27T15:26:44.175Z,1.40
2019-03-27T15:29:16.246Z,1.20
2019-03-27T15:31:49.312Z,1.42
2019-03-27T15:34:21.111Z,1.03
2019-03-27T15:36:53.630Z,2.02
2019-03-27T15:39:25.427Z,1.70
2019-03-27T15:41:58.167Z,0.93
2019-03-27T15:44:29.963Z,1.50
2019-03-27T15:47:01.858Z,1.37
2019-03-27T15:49:33.760Z,1.70
2019-03-27T15:52:05.657Z,1.50
2019-03-27T15:54:37.494Z,2.10
2019-03-27T15:57:09.295Z,1.60
2019-03-27T15:59:41.640Z,1.40
2019-03-27T16:02:13.689Z,1.17
2019-03-27T16:04:45.669Z,1.40
2019-03-27T16:07:17.595Z,1.47
2019-03-27T16:09:49.449Z,1.13
2019-03-27T16:12:21.552Z,1.20
2019-03-27T16:14:54.021Z,1.40
2019-03-27T16:17:25.980Z,1.63
2019-03-27T16:19:58.243Z,1.65
2019-03-27T16:22:30.162Z,1.50
2019-03-27T16:25:01.999Z,1.65
2019-03-27T16:27:33.845Z,1.27
2019-03-27T16:30:05.854Z,1.13
2019-03-27T16:32:37.728Z,1.43
2019-03-27T16:35:10.275Z,1.47
2019-03-27T16:37:42.148Z,1.07
2019-03-27T16:40:15.551Z,1.20
2019-03-27T16:42:47.600Z,1.10
2019-03-27T16:45:20.095Z,0.83
2019-03-27T16:47:51.925Z,1.80
2019-03-27T16:50:23.943Z,1.40
2019-03-27T16:53:03.379Z,1.10
2019-03-27T16:55:30.656Z,0.97
2019-03-27T16:58:02.983Z,1.57
2019-03-27T17:00:34.999Z,1.13
2019-03-27T17:03:07.321Z,1.30
2019-03-27T17:05:53.920Z,1.20
2019-03-27T17:08:22.338Z,1.30
2019-03-27T17:10:54.923Z,0.90
2019-03-27T17:13:27.148Z,1.07
2019-03-27T17:15:59.113Z,0.60
2019-03-27T17:18:31.012Z,1.30
2019-03-27T17:21:03.366Z,1.62
2019-03-27T17:23:35.568Z,1.27
2019-03-27T17:26:07.573Z,1.33
2019-03-27T17:28:39.646Z,0.90
2019-03-27T17:31:11.592Z,0.77
2019-03-27T17:33:44.027Z,0.90
2019-03-27T17:36:15.937Z,1.00
2019-03-27T17:38:48.030Z,1.20
2019-03-27T17:41:19.926Z,1.73
2019-03-27T17:43:51.778Z,0.93
2019-03-27T17:46:24.090Z,1.22
2019-03-27T17:48:56.881Z,0.67
2019-03-27T17:51:28.656Z,1.10
2019-03-27T17:54:00.653Z,1.10
2019-03-27T17:56:32.751Z,1.00
2019-03-27T17:59:05.003Z,1.50
2019-03-27T18:01:36.878Z,1.00
2019-03-27T18:04:11.041Z,1.12
2019-03-27T18:06:43.852Z,1.00
2019-03-27T18:09:15.791Z,0.85
2019-03-27T18:11:47.639Z,1.47
2019-03-27T18:14:20.130Z,1.00
2019-03-27T18:16:51.916Z,0.90
2019-03-27T18:19:23.709Z,1.05
2019-03-27T18:22:07.195Z,1.03
2019-03-27T18:24:29.508Z,1.60
2019-03-27T18:27:01.569Z,1.17
2019-03-27T18:29:33.373Z,1.10
2019-03-27T18:32:05.559Z,0.50
2019-03-27T18:34:37.433Z,1.03
2019-03-27T18:37:09.272Z,0.80
2019-03-27T18:39:41.095Z,0.87
2019-03-27T18:42:13.351Z,0.83
2019-03-27T18:44:45.476Z,0.85
2019-03-27T18:47:17.288Z,1.03
2019-03-27T18:49:49.071Z,0.73
2019-03-27T18:52:20.959Z,0.90
2019-03-27T18:54:52.850Z,1.22
2019-03-27T18:57:24.658Z,1.33
2019-03-27T18:59:56.566Z,1.07
2019-03-27T19:02:29.280Z,1.00
2019-03-27T19:05:01.068Z,1.27
2019-03-27T19:07:33.294Z,1.00
2019-03-27T19:10:07.087Z,1.27
2019-03-27T19:12:38.903Z,0.87
2019-03-27T19:15:11.773Z,1.10
2019-03-27T19:17:43.847Z,1.10
2019-03-27T19:20:15.942Z,0.93
2019-03-27T19:22:48.041Z,1.40
2019-03-27T19:25:19.924Z,1.50
2019-03-27T19:27:51.867Z,1.37
2019-03-27T19:30:24.332Z,1.40
2019-03-27T19:32:56.606Z,1.00
2019-03-27T19:35:29.128Z,1.20
2019-03-27T19:38:01.506Z,1.43
2019-03-27T19:40:33.675Z,1.47
2019-03-27T19:43:05.572Z,1.60
2019-03-27T19:45:38.650Z,1.15
2019-03-27T19:48:10.466Z,1.67
2019-03-27T19:50:42.253Z,1.63
2019-03-27T19:53:14.077Z,1.43
2019-03-27T19:55:46.412Z,1.10
2019-03-27T19:58:18.241Z,1.30
2019-03-27T20:00:51.065Z,1.22
2019-03-27T20:03:23.087Z,0.97
2019-03-27T20:05:54.904Z,1.20
2019-03-27T20:08:26.895Z,1.63
2019-03-27T20:10:59.091Z,1.35
2019-03-27T20:13:31.180Z,1.87
2019-03-27T20:16:03.050Z,1.30
2019-03-27T20:18:35.309Z,1.55
2019-03-27T20:21:07.252Z,1.20
2019-03-27T20:23:39.139Z,1.30
2019-03-27T20:26:10.911Z,1.47
2019-03-27T20:28:43.855Z,1.20
2019-03-27T20:31:15.639Z,1.63
2019-03-27T20:33:47.488Z,1.37
2019-03-27T20:36:19.577Z,1.52
2019-03-27T20:38:51.431Z,1.67
2019-03-27T20:41:23.279Z,1.67
2019-03-27T20:43:55.444Z,1.60
2019-03-27T20:46:29.241Z,1.60
2019-03-27T20:49:00.788Z,1.30
2019-03-27T20:51:32.579Z,1.40
2019-03-27T20:54:04.495Z,1.87
2019-03-27T20:56:36.339Z,1.95
2019-03-27T20:59:08.162Z,2.10
2019-03-27T21:01:40.352Z,2.00
2019-03-27T21:04:12.795Z,2.00
2019-03-27T21:06:44.574Z,2.00
2019-03-27T21:09:16.372Z,2.22
2019-03-27T21:11:48.236Z,1.90
2019-03-27T21:14:20.142Z,1.87
2019-03-27T21:16:51.913Z,1.97
2019-03-27T21:19:24.241Z,1.70
2019-03-27T21:21:56.206Z,1.70
2019-03-27T21:24:28.018Z,1.53
2019-03-27T21:27:00.190Z,1.80
2019-03-27T21:29:32.032Z,1.60
2019-03-27T21:32:03.822Z,1.90
2019-03-27T21:34:35.717Z,1.55
2019-03-27T21:37:07.565Z,2.17
2019-03-27T21:39:39.433Z,1.20
2019-03-27T21:42:11.356Z,1.27
2019-03-27T21:44:43.160Z,1.30
2019-03-27T21:47:15.007Z,1.80
2019-03-27T21:49:46.834Z,1.33
2019-03-27T21:52:18.916Z,1.10
2019-03-27T21:54:50.710Z,1.27
2019-03-27T21:57:22.478Z,1.90
2019-03-27T21:59:54.565Z,1.43
2019-03-27T22:02:26.417Z,1.77
2019-03-27T22:04:58.303Z,1.77
2019-03-27T22:07:30.179Z,1.73
2019-03-27T22:10:01.988Z,1.67
2019-03-27T22:12:33.840Z,1.85
2019-03-27T22:15:07.253Z,2.30
2019-03-27T22:17:39.299Z,1.60
2019-03-27T22:20:11.282Z,1.93
2019-03-27T22:22:43.165Z,1.87
2019-03-27T22:25:15.117Z,1.70
2019-03-27T22:27:46.949Z,1.83
2019-03-27T22:30:19.061Z,2.23
2019-03-27T22:32:50.907Z,2.03
2019-03-27T22:35:22.805Z,1.50
2019-03-27T22:37:54.585Z,1.82
2019-03-27T22:40:26.402Z,2.00
2019-03-27T22:42:58.840Z,1.30
2019-03-27T22:45:30.873Z,1.70
2019-03-27T22:48:02.682Z,1.37
2019-03-27T22:50:34.554Z,1.30
2019-03-27T22:53:06.712Z,1.37
2019-03-27T22:55:49.059Z,1.80
2019-03-27T22:58:13.123Z,2.33
2019-03-27T23:00:48.710Z,1.40
2019-03-27T23:03:20.656Z,1.30
2019-03-27T23:05:52.784Z,1.27
2019-03-27T23:08:24.556Z,1.80
2019-03-27T23:10:56.447Z,1.70
2019-03-27T23:13:28.902Z,1.33
2019-03-27T23:16:00.813Z,1.60
2019-03-27T23:18:32.897Z,1.30
2019-03-27T23:21:04.876Z,1.77
2019-03-27T23:23:36.650Z,1.60
2019-03-27T23:26:08.576Z,1.63
2019-03-27T23:28:40.373Z,1.30
2019-03-27T23:31:13.312Z,1.40
2019-03-27T23:33:45.248Z,1.10
2019-03-27T23:36:17.247Z,1.03
2019-03-27T23:38:49.438Z,1.40
2019-03-27T23:41:28.033Z,1.60
2019-03-27T23:44:01.058Z,1.02
2019-03-27T23:46:32.837Z,1.20
2019-03-27T23:49:05.147Z,1.25
2019-03-27T23:51:36.945Z,1.37
2019-03-27T23:54:08.720Z,0.90
2019-03-27T23:56:40.871Z,1.20
2019-03-27T23:59:12.727Z,1.30
